Time;durP1;ratioP1;P1;durP2;ratioP2;P2;SDS_P1;SDS_P2;PMS_P1;PMS_P2;Temp;Humidity;BMP_temperature;BMP_pressure;BME280_temperature;BME280_humidity;BME280_pressure;Samples;Min_cycle;Max_cycle;Signal;HPM_P1;HPM_P2
2020/12/26 00:01:08;;;;;;;16.33;15.13;;;1.20;99.90;;;;;;4933671;29;20494;-77
2020/12/26 00:03:35;;;;;;;16.50;15.13;;;1.10;99.90;;;;;;4933724;29;20458;-77
2020/12/26 00:06:01;;;;;;;16.97;15.67;;;1.10;99.90;;;;;;4933446;29;20449;-76
2020/12/26 00:08:27;;;;;;;18.23;16.57;;;1.00;99.90;;;;;;4933656;29;20488;-77
2020/12/26 00:10:53;;;;;;;18.23;16.53;;;0.90;99.90;;;;;;4933273;29;20453;-77
2020/12/26 00:13:19;;;;;;;19.17;17.53;;;0.90;99.90;;;;;;4934166;29;20973;-77
2020/12/26 00:15:46;;;;;;;18.90;17.00;;;0.90;99.90;;;;;;4933301;29;20785;-78
2020/12/26 00:18:13;;;;;;;17.47;16.17;;;0.90;99.90;;;;;;4933331;29;20453;-77
2020/12/26 00:20:39;;;;;;;21.47;19.17;;;0.90;99.90;;;;;;4933246;29;20587;-77
2020/12/26 00:23:05;;;;;;;19.97;17.97;;;0.90;99.90;;;;;;4933722;29;20460;-79
2020/12/26 00:25:31;;;;;;;21.83;19.60;;;1.00;99.90;;;;;;4933641;29;20453;-79
2020/12/26 00:27:57;;;;;;;19.37;17.43;;;1.00;99.90;;;;;;4933213;29;20472;-78
2020/12/26 00:30:23;;;;;;;19.53;17.70;;;0.90;99.90;;;;;;4933099;29;20521;-78
2020/12/26 00:32:50;;;;;;;19.77;17.80;;;0.90;99.90;;;;;;4933449;29;20456;-78
2020/12/26 00:35:17;;;;;;;21.37;19.37;;;0.90;99.90;;;;;;4933716;29;20457;-77
2020/12/26 00:37:43;;;;;;;19.43;17.70;;;0.90;99.90;;;;;;4933178;29;20457;-77
2020/12/26 00:40:09;;;;;;;21.30;19.10;;;0.80;99.90;;;;;;4933302;29;20503;-78
2020/12/26 00:42:36;;;;;;;20.23;18.10;;;0.80;99.90;;;;;;4933085;29;20484;-78
2020/12/26 00:45:02;;;;;;;19.27;17.43;;;0.80;99.90;;;;;;4933441;29;20814;-78
2020/12/26 00:47:28;;;;;;;20.53;18.30;;;0.70;99.90;;;;;;4933216;29;20877;-78
2020/12/26 00:49:55;;;;;;;21.90;19.67;;;0.70;99.90;;;;;;4933247;29;20473;-78
2020/12/26 00:52:22;;;;;;;20.53;18.57;;;0.70;99.90;;;;;;4932970;29;20464;-79
2020/12/26 00:54:48;;;;;;;19.10;17.40;;;0.60;99.90;;;;;;4933099;29;20950;-80
2020/12/26 00:57:14;;;;;;;20.40;18.43;;;0.60;99.90;;;;;;4932993;29;20495;-80
2020/12/26 00:59:40;;;;;;;22.07;19.97;;;0.60;99.90;;;;;;4932850;29;20508;-80
2020/12/26 01:02:06;;;;;;;22.40;20.20;;;0.60;99.90;;;;;;4933459;29;20501;-80
2020/12/26 01:04:32;;;;;;;22.10;19.40;;;0.50;99.90;;;;;;4933557;29;20861;-80
2020/12/26 01:06:59;;;;;;;23.03;20.83;;;0.50;99.90;;;;;;4933676;29;20471;-80
2020/12/26 01:09:26;;;;;;;21.20;19.20;;;0.50;99.90;;;;;;4933234;29;20462;-79
2020/12/26 01:11:52;;;;;;;21.67;19.47;;;0.40;99.90;;;;;;4932933;29;20450;-79
2020/12/26 01:14:19;;;;;;;21.67;19.93;;;0.50;99.90;;;;;;4933104;29;20512;-80
2020/12/26 01:16:49;;;;;;;22.03;19.97;;;0.50;99.90;;;;;;4933049;29;20894;-81
2020/12/26 01:19:16;;;;;;;21.07;19.17;;;0.50;99.90;;;;;;4932516;29;20485;-79
2020/12/26 01:21:42;;;;;;;21.60;19.47;;;0.50;99.90;;;;;;4933024;29;20453;-80
2020/12/26 01:24:09;;;;;;;21.13;19.00;;;0.50;99.90;;;;;;4935049;29;20450;-79
2020/12/26 01:26:35;;;;;;;22.30;19.60;;;0.40;99.90;;;;;;4936662;29;20463;-79
2020/12/26 01:29:01;;;;;;;23.87;21.67;;;0.40;99.90;;;;;;4936709;29;20450;-79
2020/12/26 01:31:27;;;;;;;20.33;18.47;;;0.40;99.90;;;;;;4936327;29;20517;-79
2020/12/26 01:33:53;;;;;;;20.97;18.90;;;0.40;99.90;;;;;;4936265;29;20854;-78
2020/12/26 01:36:20;;;;;;;22.10;20.17;;;0.40;99.90;;;;;;4936728;29;20457;-78
2020/12/26 01:38:46;;;;;;;19.83;18.13;;;0.40;99.90;;;;;;4935876;29;20956;-78
2020/12/26 01:41:15;;;;;;;19.90;18.00;;;0.40;99.90;;;;;;4936161;29;20858;-78
2020/12/26 01:43:54;;;;;;;21.80;19.80;;;0.40;99.90;;;;;;4936253;29;20960;-78
2020/12/26 01:46:20;;;;;;;23.00;20.57;;;0.40;99.90;;;;;;4936370;29;20457;-78
2020/12/26 01:48:46;;;;;;;21.70;19.60;;;0.30;99.90;;;;;;4936090;29;20469;-78
2020/12/26 01:51:13;;;;;;;22.23;19.97;;;0.30;99.90;;;;;;4935864;29;20458;-79
2020/12/26 01:53:39;;;;;;;22.73;20.50;;;0.20;99.90;;;;;;4935852;29;20956;-79
2020/12/26 01:56:06;;;;;;;21.57;19.57;;;0.20;99.90;;;;;;4936358;29;20457;-79
2020/12/26 01:58:35;;;;;;;21.30;19.20;;;0.30;99.90;;;;;;4935698;29;20446;-79
2020/12/26 02:01:01;;;;;;;21.87;19.60;;;0.30;99.90;;;;;;4935871;29;20894;-79
2020/12/26 02:03:27;;;;;;;22.13;20.07;;;0.30;99.90;;;;;;4935968;29;20464;-79
2020/12/26 02:05:55;;;;;;;22.23;20.20;;;0.50;99.90;;;;;;4935823;29;20463;-78
2020/12/26 02:08:21;;;;;;;22.97;20.83;;;0.60;99.90;;;;;;4935765;29;20472;-78
2020/12/26 02:10:47;;;;;;;25.17;22.67;;;0.80;99.90;;;;;;4935653;29;20451;-78
2020/12/26 02:13:13;;;;;;;23.00;20.67;;;1.00;99.90;;;;;;4935642;29;20485;-78
2020/12/26 02:15:40;;;;;;;21.93;20.03;;;1.10;99.90;;;;;;4935431;29;20807;-77
2020/12/26 02:18:06;;;;;;;22.63;20.53;;;1.20;99.90;;;;;;4935690;29;20471;-77
2020/12/26 02:20:33;;;;;;;22.07;19.97;;;1.20;99.90;;;;;;4935492;29;20557;-77
2020/12/26 02:23:02;;;;;;;22.50;20.30;;;1.00;99.90;;;;;;4935567;29;20507;-76
2020/12/26 02:25:29;;;;;;;23.03;20.83;;;1.00;99.90;;;;;;4935513;29;20458;-76
2020/12/26 02:27:55;;;;;;;21.03;18.70;;;0.90;99.90;;;;;;4935030;29;20457;-76
2020/12/26 02:30:22;;;;;;;23.10;20.83;;;0.90;99.90;;;;;;4935463;29;20459;-78
2020/12/26 02:32:48;;;;;;;22.07;19.90;;;0.90;99.90;;;;;;4935473;29;20459;-78
2020/12/26 02:35:14;;;;;;;19.47;17.50;;;0.80;99.90;;;;;;4935409;29;20460;-78
2020/12/26 02:37:40;;;;;;;20.00;18.13;;;0.70;99.90;;;;;;4935050;29;20458;-76
2020/12/26 02:40:07;;;;;;;19.60;17.70;;;0.70;99.90;;;;;;4935350;29;20489;-76
2020/12/26 02:42:34;;;;;;;21.60;19.53;;;0.70;99.90;;;;;;4935249;29;20461;-76
2020/12/26 02:45:00;;;;;;;21.70;19.40;;;0.80;99.90;;;;;;4935087;29;20813;-76
2020/12/26 02:47:26;;;;;;;20.40;18.60;;;0.90;99.90;;;;;;4934743;29;20561;-76
2020/12/26 02:49:52;;;;;;;21.00;19.07;;;0.90;99.90;;;;;;4934990;29;20837;-76
2020/12/26 02:52:18;;;;;;;20.30;18.47;;;0.90;99.90;;;;;;4935170;29;20461;-76
2020/12/26 02:54:44;;;;;;;22.80;20.67;;;0.90;99.90;;;;;;4934873;29;20450;-76
2020/12/26 02:57:11;;;;;;;21.47;19.23;;;1.00;99.90;;;;;;4934648;29;20461;-76
2020/12/26 02:59:38;;;;;;;20.73;19.03;;;1.10;99.90;;;;;;4934806;29;20464;-77
2020/12/26 03:02:04;;;;;;;22.97;20.30;;;1.20;99.90;;;;;;4934865;29;20464;-77
2020/12/26 03:04:30;;;;;;;22.27;20.03;;;1.30;99.90;;;;;;4934573;29;20459;-78
2020/12/26 03:06:56;;;;;;;22.83;20.67;;;1.50;99.90;;;;;;4934343;29;20592;-77
2020/12/26 03:09:22;;;;;;;20.83;18.90;;;1.60;99.90;;;;;;4934716;29;20458;-78
2020/12/26 03:11:48;;;;;;;20.90;19.13;;;1.60;99.90;;;;;;4934884;29;20469;-77
2020/12/26 03:14:15;;;;;;;20.47;18.67;;;1.60;99.90;;;;;;4934619;29;20461;-79
2020/12/26 03:16:42;;;;;;;20.40;18.87;;;1.50;99.90;;;;;;4934485;29;20459;-74
2020/12/26 03:19:08;;;;;;;20.77;18.87;;;1.30;99.90;;;;;;4934057;29;20493;-76
2020/12/26 03:21:34;;;;;;;23.20;20.53;;;1.20;99.90;;;;;;4934429;29;20580;-76
2020/12/26 03:24:00;;;;;;;23.13;20.27;;;1.10;99.90;;;;;;4934250;29;21022;-77
2020/12/26 03:26:26;;;;;;;20.43;18.50;;;1.20;99.90;;;;;;4934441;29;20461;-77
2020/12/26 03:28:52;;;;;;;21.07;19.27;;;1.30;99.90;;;;;;4934222;29;20461;-76
2020/12/26 03:31:19;;;;;;;21.90;19.90;;;1.30;99.90;;;;;;4934092;29;20445;-76
2020/12/26 03:33:46;;;;;;;22.30;20.13;;;1.30;99.90;;;;;;4934066;29;20466;-76
2020/12/26 03:36:12;;;;;;;21.30;19.37;;;1.30;99.90;;;;;;4934124;29;20457;-76
2020/12/26 03:38:38;;;;;;;20.43;18.60;;;1.20;99.90;;;;;;4934260;29;20458;-76
2020/12/26 03:41:04;;;;;;;22.17;17.83;;;1.20;99.90;;;;;;4934247;29;20893;-76
2020/12/26 03:43:30;;;;;;;20.87;18.97;;;1.40;99.90;;;;;;4933983;29;20461;-76
2020/12/26 03:45:57;;;;;;;21.60;19.80;;;1.50;99.90;;;;;;4933197;29;20455;-75
2020/12/26 03:48:23;;;;;;;21.07;19.07;;;1.30;99.90;;;;;;4933941;29;20461;-76
2020/12/26 03:50:50;;;;;;;22.13;20.23;;;1.30;99.90;;;;;;4934117;29;20519;-76
2020/12/26 03:53:16;;;;;;;20.50;18.80;;;1.30;99.90;;;;;;4933734;29;20465;-74
2020/12/26 03:55:42;;;;;;;21.50;19.17;;;1.20;99.90;;;;;;4934109;29;20446;-75
2020/12/26 03:58:08;;;;;;;21.40;19.17;;;1.10;99.90;;;;;;4933779;29;20980;-76
2020/12/26 04:00:34;;;;;;;21.33;19.37;;;1.10;99.90;;;;;;4933766;29;20635;-76
2020/12/26 04:03:01;;;;;;;22.47;20.47;;;1.10;99.90;;;;;;4933864;29;20469;-75
2020/12/26 04:05:27;;;;;;;22.73;20.43;;;1.10;99.90;;;;;;4933534;29;20458;-76
2020/12/26 04:07:54;;;;;;;21.70;19.73;;;1.10;99.90;;;;;;4934118;29;20866;-75
2020/12/26 04:10:20;;;;;;;23.00;20.90;;;1.10;99.90;;;;;;4933770;29;20452;-76
2020/12/26 04:12:46;;;;;;;22.40;20.30;;;1.20;99.90;;;;;;4933643;29;20446;-76
2020/12/26 04:15:12;;;;;;;22.07;20.07;;;1.20;99.90;;;;;;4933662;29;20453;-76
2020/12/26 04:17:38;;;;;;;22.47;20.20;;;1.20;99.90;;;;;;4933359;29;20456;-75
2020/12/26 04:20:05;;;;;;;22.13;20.17;;;1.30;99.90;;;;;;4933418;29;20642;-75
2020/12/26 04:22:31;;;;;;;21.77;19.80;;;1.20;99.90;;;;;;4933448;29;20463;-75
2020/12/26 04:24:58;;;;;;;24.07;21.97;;;1.30;99.90;;;;;;4933310;29;20779;-75
2020/12/26 04:27:24;;;;;;;21.50;19.70;;;1.20;99.90;;;;;;4933296;29;20460;-75
2020/12/26 04:29:50;;;;;;;22.93;20.67;;;1.20;99.90;;;;;;4933638;29;20452;-75
2020/12/26 04:32:16;;;;;;;23.87;21.60;;;1.20;99.90;;;;;;4933395;29;20459;-75
2020/12/26 04:34:49;;;;;;;24.33;21.93;;;1.30;99.90;;;;;;4933516;29;20462;-75
2020/12/26 04:37:15;;;;;;;23.07;21.17;;;1.30;99.90;;;;;;4933307;29;20455;-75
2020/12/26 04:39:43;;;;;;;23.50;21.60;;;1.40;99.90;;;;;;4933208;29;20739;-75
2020/12/26 04:42:10;;;;;;;23.73;21.53;;;1.50;99.90;;;;;;4932908;29;20458;-75
2020/12/26 04:44:37;;;;;;;25.50;23.27;;;1.50;99.90;;;;;;4933199;29;20445;-75
2020/12/26 04:47:08;;;;;;;24.13;21.90;;;1.40;99.90;;;;;;4933116;29;20460;-75
2020/12/26 04:49:36;;;;;;;26.50;24.10;;;1.40;99.90;;;;;;4933509;29;20494;-75
2020/12/26 04:52:03;;;;;;;24.57;22.27;;;1.40;99.90;;;;;;4932981;29;20450;-75
2020/12/26 04:54:33;;;;;;;23.33;21.13;;;1.30;99.90;;;;;;4933364;29;20456;-76
2020/12/26 04:56:59;;;;;;;24.87;22.67;;;1.30;99.90;;;;;;4932931;29;20458;-75
2020/12/26 04:59:26;;;;;;;23.50;21.57;;;1.30;99.90;;;;;;4935768;29;20452;-75
2020/12/26 05:01:53;;;;;;;23.23;20.80;;;1.30;99.90;;;;;;4936953;29;20502;-75
2020/12/26 05:04:20;;;;;;;23.50;21.10;;;1.30;99.90;;;;;;4937211;29;20461;-75
2020/12/26 05:06:47;;;;;;;22.37;19.97;;;1.20;99.90;;;;;;4936868;29;20822;-75
2020/12/26 05:09:15;;;;;;;27.60;21.73;;;1.30;99.90;;;;;;4936755;29;20461;-76
2020/12/26 05:11:49;;;;;;;24.47;22.10;;;1.30;99.90;;;;;;4936819;29;20462;-76
2020/12/26 05:14:17;;;;;;;23.57;21.57;;;1.30;99.90;;;;;;4936775;29;20999;-75
2020/12/26 05:16:44;;;;;;;26.03;22.40;;;1.30;99.90;;;;;;4936589;29;20540;-75
2020/12/26 05:19:10;;;;;;;23.83;20.90;;;1.40;99.90;;;;;;4936308;29;20484;-76
2020/12/26 05:21:36;;;;;;;24.83;22.33;;;1.40;99.90;;;;;;4936491;29;20498;-75
2020/12/26 05:24:06;;;;;;;25.33;22.93;;;1.50;99.90;;;;;;4936630;29;20461;-75
2020/12/26 05:26:39;;;;;;;24.27;21.80;;;1.60;99.90;;;;;;4936431;29;20492;-76
2020/12/26 05:29:06;;;;;;;24.53;22.17;;;1.60;99.90;;;;;;4936503;29;20554;-75
2020/12/26 05:31:47;;;;;;;24.10;21.60;;;1.50;99.90;;;;;;4936557;29;20564;-75
2020/12/26 05:34:14;;;;;;;22.23;20.27;;;1.60;99.90;;;;;;4936412;29;20460;-75
2020/12/26 05:36:41;;;;;;;22.10;19.90;;;1.50;99.90;;;;;;4936364;29;20452;-75
2020/12/26 05:39:10;;;;;;;24.27;21.87;;;1.50;99.90;;;;;;4936097;29;20450;-76
2020/12/26 05:41:42;;;;;;;23.20;21.00;;;1.50;99.90;;;;;;4935959;29;20536;-75
2020/12/26 05:44:09;;;;;;;22.63;20.53;;;1.70;99.90;;;;;;4936152;29;20500;-74
2020/12/26 05:46:35;;;;;;;22.27;20.37;;;1.70;99.90;;;;;;4936436;29;20454;-75
2020/12/26 05:49:25;;;;;;;24.90;22.40;;;1.80;99.90;;;;;;4935729;29;20990;-76
2020/12/26 05:51:53;;;;;;;23.40;21.00;;;1.90;99.90;;;;;;4936143;29;20894;-75
2020/12/26 05:54:20;;;;;;;23.70;21.30;;;1.90;99.90;;;;;;4936023;29;20538;-77
2020/12/26 05:56:46;;;;;;;24.93;21.87;;;1.80;99.90;;;;;;4935675;29;20471;-76
2020/12/26 05:59:25;;;;;;;21.47;19.27;;;1.80;99.90;;;;;;4935870;29;20868;-76
2020/12/26 06:01:55;;;;;;;23.80;21.33;;;1.70;99.90;;;;;;4935728;29;21029;-76
2020/12/26 06:04:22;;;;;;;23.87;21.50;;;1.70;99.90;;;;;;4936055;29;20468;-76
2020/12/26 06:06:52;;;;;;;26.90;19.47;;;1.60;99.90;;;;;;4936004;29;20463;-75
2020/12/26 06:09:20;;;;;;;23.23;20.80;;;1.60;99.90;;;;;;4935730;29;20863;-76
2020/12/26 06:11:47;;;;;;;23.00;20.73;;;1.50;99.90;;;;;;4935862;29;20470;-84
2020/12/26 06:14:18;;;;;;;23.10;20.70;;;1.50;99.90;;;;;;4935841;29;20992;-84
2020/12/26 06:16:49;;;;;;;22.93;20.90;;;1.40;99.90;;;;;;4936073;29;20459;-88
2020/12/26 06:19:18;;;;;;;23.90;21.53;;;1.40;99.90;;;;;;4935796;29;20526;-81
2020/12/26 06:21:50;;;;;;;23.70;21.37;;;1.30;99.90;;;;;;4935575;29;20489;-80
2020/12/26 06:24:16;;;;;;;24.80;22.33;;;1.30;99.90;;;;;;4935684;29;20460;-82
2020/12/26 06:26:47;;;;;;;23.50;21.10;;;1.30;99.90;;;;;;4935623;29;20908;-81
2020/12/26 06:29:16;;;;;;;22.10;20.10;;;1.30;99.90;;;;;;4935629;29;20473;-80
2020/12/26 06:31:45;;;;;;;23.50;21.17;;;1.30;99.90;;;;;;4935401;29;20481;-83
2020/12/26 06:34:11;;;;;;;22.37;20.20;;;1.30;99.90;;;;;;4935278;29;21014;-85
2020/12/26 06:36:40;;;;;;;24.30;21.80;;;1.30;99.90;;;;;;4935340;29;20481;-82
2020/12/26 06:39:27;;;;;;;25.40;23.10;;;1.30;99.90;;;;;;4935323;29;20477;-82
2020/12/26 06:42:13;;;;;;;24.23;21.73;;;1.30;99.90;;;;;;4935085;29;21074;-78
2020/12/26 06:44:40;;;;;;;25.93;22.57;;;1.30;99.90;;;;;;4935567;29;20489;-77
2020/12/26 06:47:06;;;;;;;24.90;22.50;;;1.30;99.90;;;;;;4935337;29;20462;-77
2020/12/26 06:49:32;;;;;;;25.10;22.73;;;1.30;99.90;;;;;;4935227;29;20478;-83
2020/12/26 06:51:59;;;;;;;27.40;24.57;;;1.30;99.90;;;;;;4935004;29;20831;-84
2020/12/26 06:54:46;;;;;;;25.90;23.23;;;1.40;99.90;;;;;;4935843;29;20455;-87
2020/12/26 06:57:38;;;;;;;25.93;23.20;;;1.50;99.90;;;;;;4938525;29;20459;-78
2020/12/26 07:00:29;;;;;;;24.40;21.73;;;1.40;99.90;;;;;;4935077;29;20887;-78
2020/12/26 07:03:21;;;;;;;29.73;22.20;;;1.40;99.90;;;;;;4934686;29;20457;-78
2020/12/26 07:05:48;;;;;;;23.90;21.70;;;1.50;99.90;;;;;;4934696;29;20449;-79
2020/12/26 07:08:35;;;;;;;25.07;22.80;;;1.50;99.90;;;;;;4935045;29;20463;-78
2020/12/26 07:11:04;;;;;;;24.27;21.93;;;1.60;99.90;;;;;;4928579;29;20450;-83
2020/12/26 07:13:44;;;;;;;23.40;21.23;;;1.60;99.90;;;;;;4934449;29;20461;-82
2020/12/26 07:16:39;;;;;;;25.27;22.87;;;1.60;99.90;;;;;;4934700;29;20880;-83
2020/12/26 07:19:32;;;;;;;23.50;21.17;;;1.50;99.90;;;;;;4934730;29;20489;-82
2020/12/26 07:22:03;;;;;;;23.80;21.60;;;1.40;99.90;;;;;;4933427;29;20498;-84
2020/12/26 07:24:35;;;;;;;24.23;22.03;;;1.40;99.90;;;;;;4934555;29;20485;-82
2020/12/26 07:27:28;;;;;;;24.73;22.27;;;1.40;99.90;;;;;;4934561;29;20960;-77
2020/12/26 07:30:09;;;;;;;23.90;21.80;;;1.40;99.90;;;;;;4934466;29;20830;-79
2020/12/26 07:32:42;;;;;;;23.40;21.30;;;1.30;99.90;;;;;;4934808;29;20941;-78
2020/12/26 07:35:15;;;;;;;25.63;22.97;;;1.30;99.90;;;;;;4935468;29;20457;-78
2020/12/26 07:37:42;;;;;;;22.93;20.77;;;1.40;99.90;;;;;;4934388;29;20460;-88
2020/12/26 07:40:09;;;;;;;32.37;22.47;;;1.40;99.90;;;;;;4934020;29;20554;-78
2020/12/26 07:42:36;;;;;;;24.87;22.67;;;1.40;99.90;;;;;;4931881;29;20465;-77
2020/12/26 07:45:09;;;;;;;23.60;21.40;;;1.40;99.90;;;;;;4934192;29;20477;-79
2020/12/26 07:47:40;;;;;;;28.80;25.37;;;1.40;99.90;;;;;;4934458;29;20647;-77
2020/12/26 07:50:06;;;;;;;25.67;23.17;;;1.40;99.90;;;;;;4934617;29;20477;-79
2020/12/26 07:52:32;;;;;;;24.27;21.67;;;1.40;99.90;;;;;;4934487;29;20561;-79
2020/12/26 07:55:08;;;;;;;25.07;22.80;;;1.40;99.90;;;;;;4934353;29;20515;-78
2020/12/26 07:57:35;;;;;;;24.23;21.97;;;1.40;99.90;;;;;;4932159;29;20461;-79
2020/12/26 08:00:02;;;;;;;33.23;23.10;;;1.50;99.90;;;;;;4933838;29;20820;-80
2020/12/26 08:02:29;;;;;;;30.97;24.67;;;1.60;99.90;;;;;;4933872;29;20465;-80
2020/12/26 08:04:55;;;;;;;27.80;24.63;;;1.60;99.90;;;;;;4933621;29;20970;-78
2020/12/26 08:07:21;;;;;;;27.33;23.50;;;1.70;99.90;;;;;;4933719;29;20465;-72
2020/12/26 08:09:51;;;;;;;29.63;26.43;;;1.80;99.90;;;;;;4936087;29;20464;-81
2020/12/26 08:12:18;;;;;;;27.37;24.57;;;2.20;99.90;;;;;;4934214;29;20463;-82
2020/12/26 08:14:55;;;;;;;23.07;20.77;;;2.40;99.90;;;;;;4933769;29;20460;-81
2020/12/26 08:17:23;;;;;;;22.60;20.33;;;2.40;99.90;;;;;;4933847;29;20489;-78
2020/12/26 08:19:56;;;;;;;24.13;20.87;;;2.40;99.90;;;;;;4933667;29;20483;-78
2020/12/26 08:22:22;;;;;;;22.37;20.20;;;2.20;99.90;;;;;;4933840;29;20451;-75
2020/12/26 08:24:48;;;;;;;22.07;19.97;;;2.20;99.90;;;;;;4933642;29;20445;-76
2020/12/26 08:27:16;;;;;;;21.03;19.03;;;2.30;99.90;;;;;;4933580;29;20513;-77
2020/12/26 08:29:42;;;;;;;22.00;19.70;;;2.40;99.90;;;;;;4933608;29;20464;-81
2020/12/26 08:32:11;;;;;;;20.50;18.57;;;2.60;99.90;;;;;;4933368;29;20455;-81
2020/12/26 08:34:44;;;;;;;19.17;17.50;;;2.70;99.90;;;;;;4931028;29;20508;-79
2020/12/26 08:37:18;;;;;;;19.43;17.53;;;2.60;99.90;;;;;;4933590;29;20816;-79
2020/12/26 08:39:45;;;;;;;19.67;17.90;;;2.50;99.90;;;;;;4933685;29;20821;-81
2020/12/26 08:42:13;;;;;;;18.50;17.07;;;2.50;99.90;;;;;;4933421;29;21082;-82
2020/12/26 08:44:39;;;;;;;19.33;17.27;;;2.50;99.90;;;;;;4933603;29;20535;-83
2020/12/26 08:47:07;;;;;;;17.83;16.43;;;2.50;99.90;;;;;;4933849;29;20461;-84
2020/12/26 08:49:34;;;;;;;20.80;19.00;;;2.40;99.90;;;;;;4933792;29;20487;-88
2020/12/26 08:52:02;;;;;;;20.53;18.60;;;2.50;99.90;;;;;;4933509;29;21003;-86
2020/12/26 08:54:28;;;;;;;19.27;17.40;;;2.80;99.90;;;;;;4933854;29;20488;-86
2020/12/26 08:56:54;;;;;;;20.50;18.60;;;3.00;99.90;;;;;;4933713;29;20462;-86
2020/12/26 08:59:27;;;;;;;20.53;18.57;;;3.00;99.90;;;;;;4933603;29;20464;-85
2020/12/26 09:01:54;;;;;;;19.57;17.87;;;3.10;99.90;;;;;;4933487;29;20496;-85
2020/12/26 09:04:21;;;;;;;19.97;18.30;;;3.10;99.90;;;;;;4933561;29;20504;-83
2020/12/26 09:06:48;;;;;;;18.17;16.50;;;3.20;99.90;;;;;;4932050;29;20457;-84
2020/12/26 09:09:15;;;;;;;16.80;15.43;;;3.30;99.90;;;;;;4919092;29;20452;-82
2020/12/26 09:11:42;;;;;;;18.80;16.90;;;3.50;99.90;;;;;;4932031;29;20998;-84
2020/12/26 09:14:16;;;;;;;17.27;15.80;;;3.50;99.90;;;;;;4933232;29;20458;-85
2020/12/26 09:16:42;;;;;;;19.53;17.73;;;3.50;99.90;;;;;;4933357;29;20781;-84
2020/12/26 09:19:08;;;;;;;20.23;18.23;;;3.70;99.90;;;;;;4932825;29;20489;-85
2020/12/26 09:21:35;;;;;;;21.10;19.10;;;3.80;99.90;;;;;;4933052;29;20489;-85
2020/12/26 09:24:02;;;;;;;18.90;17.10;;;4.00;99.90;;;;;;4933446;29;20515;-86
2020/12/26 09:26:29;;;;;;;17.90;16.50;;;3.90;99.90;;;;;;4933343;29;20524;-85
2020/12/26 09:28:57;;;;;;;20.60;18.77;;;3.90;99.90;;;;;;4933166;29;20461;-84
2020/12/26 09:31:25;;;;;;;21.33;19.10;;;3.70;99.90;;;;;;4933317;29;20462;-84
2020/12/26 09:33:52;;;;;;;20.33;17.00;;;3.80;99.90;;;;;;4933702;29;20458;-85
2020/12/26 09:36:20;;;;;;;18.03;16.53;;;4.10;99.90;;;;;;4937534;29;20469;-85
2020/12/26 09:38:47;;;;;;;17.40;15.93;;;4.10;99.90;;;;;;4945854;29;20457;-84
2020/12/26 09:41:17;;;;;;;17.40;16.00;;;4.30;99.90;;;;;;4942985;29;20763;-85
2020/12/26 09:43:45;;;;;;;17.93;16.53;;;4.50;99.90;;;;;;4936825;29;20458;-85
2020/12/26 09:46:11;;;;;;;18.70;17.20;;;4.60;99.90;;;;;;4940099;29;20487;-86
2020/12/26 09:48:38;;;;;;;19.33;17.80;;;4.60;99.90;;;;;;4936803;29;20505;-86
2020/12/26 09:51:05;;;;;;;18.07;16.57;;;4.30;99.90;;;;;;4937125;29;20466;-86
2020/12/26 09:53:31;;;;;;;18.53;16.93;;;4.20;99.90;;;;;;4936780;29;20461;-88
2020/12/26 09:55:57;;;;;;;19.10;17.30;;;4.30;99.90;;;;;;4938771;29;20469;-88
2020/12/26 09:58:25;;;;;;;17.80;16.50;;;4.20;99.90;;;;;;4937070;29;20468;-88
2020/12/26 10:00:51;;;;;;;18.60;16.90;;;4.30;99.90;;;;;;4936596;29;20489;-85
2020/12/26 10:03:17;;;;;;;18.97;17.07;;;4.30;99.90;;;;;;4936625;29;20470;-88
2020/12/26 10:05:44;;;;;;;18.10;16.57;;;4.30;99.90;;;;;;4936534;29;20469;-87
2020/12/26 10:08:11;;;;;;;20.17;18.50;;;4.40;99.90;;;;;;4936668;29;20473;-88
2020/12/26 10:10:38;;;;;;;17.57;16.27;;;4.80;99.90;;;;;;4936508;29;20958;-88
2020/12/26 10:13:10;;;;;;;17.63;16.43;;;5.00;99.90;;;;;;4938552;29;20503;-88
2020/12/26 11:07:07;;;;;;;13.77;12.93;;;6.10;99.90;;;;;;5099920;23;20496;-90
2020/12/26 11:36:18;;;;;;;12.97;12.03;;;7.30;99.90;;;;;;4844983;29;21067;-88
2020/12/26 11:38:45;;;;;;;14.93;14.10;;;7.70;99.90;;;;;;4844044;29;20540;-87
2020/12/26 12:44:58;;;;;;;12.23;11.33;;;7.90;97.00;;;;;;5010116;23;20497;-90
2020/12/26 12:48:11;;;;;;;13.70;12.77;;;7.90;97.30;;;;;;4916474;29;20501;-89
2020/12/26 12:51:06;;;;;;;12.67;12.00;;;8.50;97.80;;;;;;4936361;23;20526;-86
2020/12/26 12:57:49;;;;;;;;;;;;;;;;;;;;;
2020/12/26 13:00:39;;;;;;;13.07;12.07;;;8.00;97.70;;;;;;4876280;29;20456;-90
2020/12/26 13:39:28;;;;;;;14.73;13.60;;;7.10;99.50;;;;;;4905267;29;20571;-90
2020/12/26 13:42:13;;;;;;;13.40;12.50;;;7.10;99.40;;;;;;4900492;29;20595;-91
2020/12/26 13:44:58;;;;;;;;;;;;;;;;;;;;;
2020/12/26 13:47:27;;;;;;;12.57;11.63;;;6.90;99.20;;;;;;4895337;29;20458;-89
2020/12/26 13:53:25;;;;;;;13.40;12.40;;;6.80;99.80;;;;;;4905130;29;20459;-89
2020/12/26 13:55:52;;;;;;;13.90;13.10;;;6.70;99.90;;;;;;4936233;29;20503;-90
2020/12/26 13:58:37;;;;;;;14.00;13.20;;;6.50;99.80;;;;;;4940310;29;20492;-89
2020/12/26 14:12:03;;;;;;;13.87;13.07;;;6.30;99.90;;;;;;4677688;30;20449;-90
2020/12/26 14:14:43;;;;;;;13.90;12.90;;;6.20;99.90;;;;;;4821844;29;20467;-88
2020/12/26 14:17:15;;;;;;;14.20;13.30;;;6.30;99.90;;;;;;4880307;29;20470;-89
2020/12/26 14:19:43;;;;;;;13.07;12.47;;;6.10;99.90;;;;;;4918270;29;20462;-88
2020/12/26 14:38:37;;;;;;;13.63;12.80;;;6.20;99.90;;;;;;4697402;30;20453;-90
2020/12/26 14:41:13;;;;;;;13.03;12.33;;;6.30;99.90;;;;;;4786129;30;20544;-90
2020/12/26 14:43:46;;;;;;;13.93;12.93;;;6.20;99.90;;;;;;4848523;29;20462;-90
2020/12/26 14:46:41;;;;;;;12.97;12.27;;;6.00;99.90;;;;;;4940074;29;20540;-90
2020/12/26 14:53:08;;;;;;;11.10;10.30;;;5.90;99.70;;;;;;4869540;29;20799;-90
2020/12/26 14:55:38;;;;;;;12.10;11.23;;;5.60;99.50;;;;;;4936813;29;20525;-88
2020/12/26 14:58:10;;;;;;;13.30;12.20;;;5.50;99.90;;;;;;4934972;29;20545;-88
2020/12/26 15:00:36;;;;;;;12.23;11.43;;;5.40;99.90;;;;;;4935209;29;20457;-88
2020/12/26 15:03:02;;;;;;;12.37;11.57;;;5.30;99.90;;;;;;4936068;29;20802;-82
2020/12/26 15:05:29;;;;;;;11.87;11.17;;;5.20;99.90;;;;;;4937510;29;20461;-89
2020/12/26 15:07:55;;;;;;;13.03;12.13;;;5.10;99.90;;;;;;4939456;29;20467;-89
2020/12/26 15:10:21;;;;;;;13.97;13.07;;;4.90;99.90;;;;;;4937047;29;20464;-88
2020/12/26 15:12:49;;;;;;;13.00;12.20;;;4.80;99.90;;;;;;4936887;29;20448;-88
2020/12/26 15:15:15;;;;;;;13.17;12.20;;;4.70;99.90;;;;;;4937735;29;20467;-87
2020/12/26 15:17:41;;;;;;;14.67;13.67;;;4.70;99.90;;;;;;4939200;29;20473;-88
2020/12/26 15:20:08;;;;;;;14.30;13.40;;;4.60;99.90;;;;;;4936832;29;20463;-88
2020/12/26 15:22:34;;;;;;;12.47;11.70;;;4.50;99.90;;;;;;4935887;29;20996;-89
2020/12/26 15:25:01;;;;;;;13.90;12.70;;;4.40;99.90;;;;;;4935499;29;20469;-90
2020/12/26 15:27:27;;;;;;;13.83;12.43;;;4.30;99.90;;;;;;4935803;29;20454;-88
2020/12/26 15:29:54;;;;;;;14.90;13.90;;;4.10;99.90;;;;;;4934782;29;20466;-89
2020/12/26 15:32:37;;;;;;;13.47;12.57;;;4.00;99.90;;;;;;4936316;29;20975;-91
2020/12/26 15:35:03;;;;;;;14.70;13.53;;;3.90;99.90;;;;;;4940262;29;20501;-90
2020/12/26 15:37:30;;;;;;;13.63;12.63;;;3.90;99.90;;;;;;4941773;29;20460;-89
2020/12/26 15:39:56;;;;;;;14.30;13.10;;;3.80;99.90;;;;;;4940829;29;20790;-90
2020/12/26 15:42:22;;;;;;;13.77;12.73;;;3.80;99.90;;;;;;4934380;29;20490;-89
2020/12/26 15:44:49;;;;;;;12.90;11.97;;;3.70;99.90;;;;;;4934799;29;20472;-90
2020/12/26 15:47:16;;;;;;;12.90;11.63;;;3.70;99.90;;;;;;4935461;29;20456;-88
2020/12/26 15:49:42;;;;;;;14.00;12.73;;;3.60;99.90;;;;;;4936042;29;20493;-88
2020/12/26 15:52:09;;;;;;;12.30;11.50;;;3.50;99.90;;;;;;4935472;29;20944;-88
2020/12/26 15:54:35;;;;;;;13.07;12.07;;;3.50;99.90;;;;;;4935630;29;20472;-88
2020/12/26 15:57:02;;;;;;;14.93;13.63;;;3.40;99.90;;;;;;4936409;29;20453;-88
2020/12/26 15:59:28;;;;;;;13.97;12.87;;;3.30;99.90;;;;;;4946687;29;20855;-88
2020/12/26 16:01:54;;;;;;;13.70;12.70;;;3.30;99.90;;;;;;4936916;29;20524;-87
2020/12/26 16:04:25;;;;;;;14.47;13.37;;;3.30;99.90;;;;;;4941126;29;20454;-91
2020/12/26 16:06:52;;;;;;;14.83;13.87;;;3.20;99.90;;;;;;4936966;29;20468;-86
2020/12/26 16:09:18;;;;;;;14.00;13.00;;;3.20;99.90;;;;;;4935302;29;20455;-87
2020/12/26 16:11:44;;;;;;;14.17;13.17;;;3.10;99.90;;;;;;4937516;29;20457;-87
2020/12/26 16:14:10;;;;;;;16.20;14.90;;;3.00;99.90;;;;;;4938107;29;20445;-88
2020/12/26 16:16:37;;;;;;;14.10;13.03;;;2.90;99.90;;;;;;4952601;29;20459;-88
2020/12/26 16:19:03;;;;;;;13.33;12.33;;;2.90;99.90;;;;;;4952970;29;20449;-87
2020/12/26 16:21:30;;;;;;;15.83;14.40;;;2.80;99.90;;;;;;4942709;29;20500;-88
2020/12/26 16:23:57;;;;;;;14.20;13.10;;;2.80;99.90;;;;;;4937180;29;20464;-87